createdAt,value
2023-04-15T00:01:11.812Z,99138.44
2023-04-15T00:11:14.378Z,99143.13
2023-04-15T00:21:16.088Z,99140.97
2023-04-15T00:31:18.178Z,99146.16
2023-04-15T00:41:21.056Z,99160.44
2023-04-15T00:51:23.525Z,99158.56
2023-04-15T01:01:26.642Z,99171.34
2023-04-15T01:11:30.661Z,99163.59
2023-04-15T01:21:33.408Z,99166.47
2023-04-15T01:31:36.384Z,99172.84
2023-04-15T01:41:38.116Z,99166.78
2023-04-15T01:51:40.291Z,99177.84
2023-04-15T02:01:42.316Z,99187.59
2023-04-15T02:11:44.920Z,99186.56
2023-04-15T02:21:46.486Z,99182.53
2023-04-15T02:31:48.564Z,99195.63
2023-04-15T02:41:53.586Z,99190.59
2023-04-15T02:51:55.986Z,99187.06
2023-04-15T03:02:01.120Z,99187.06
2023-04-15T03:12:03.304Z,99168.78
2023-04-15T03:22:04.913Z,99163.56
2023-04-15T03:32:07.498Z,99165.25
2023-04-15T03:42:09.609Z,99190.06
2023-04-15T03:52:11.685Z,99188.06
2023-04-15T04:02:13.847Z,99189.22
2023-04-15T04:12:16.146Z,99174.63
2023-04-15T04:22:17.793Z,99194.59
2023-04-15T04:32:20.110Z,99192.09
2023-04-15T04:42:22.684Z,99199.13
2023-04-15T04:52:24.368Z,99195.94
2023-04-15T05:02:27.596Z,99209.88
2023-04-15T05:12:29.692Z,99221.13
2023-04-15T05:22:31.444Z,99223.28
2023-04-15T05:32:33.855Z,99234.22
2023-04-15T05:42:36.519Z,99232.53
2023-04-15T05:52:39.212Z,99235.41
2023-04-15T06:02:41.800Z,99234.56
2023-04-15T06:12:44.386Z,99232.03
2023-04-15T06:22:46.219Z,99243.66
2023-04-15T06:32:48.648Z,99255.03
2023-04-15T06:42:50.441Z,99265.63
2023-04-15T06:52:53.683Z,99273.50
2023-04-15T07:02:56.567Z,99287.78
2023-04-15T07:12:59.129Z,99288.78
2023-04-15T07:23:00.710Z,99288.28
2023-04-15T07:33:03.908Z,99301.72
2023-04-15T07:43:06.585Z,99311.47
2023-04-15T07:53:09.443Z,99321.34
2023-04-15T08:03:11.979Z,99304.72
2023-04-15T08:13:13.899Z,99305.94
2023-04-15T08:23:16.044Z,99302.72
2023-04-15T08:33:18.092Z,99310.13
2023-04-15T08:48:05.199Z,99315.00
2023-04-15T08:58:08.527Z,99332.81
2023-04-15T09:08:11.209Z,99343.91
2023-04-15T09:18:16.092Z,99342.06
2023-04-15T09:38:28.130Z,99351.66
2023-04-15T09:48:31.232Z,99347.94
2023-04-15T09:58:35.312Z,99347.59
2023-04-15T10:08:37.220Z,99355.66
2023-04-15T10:18:44.378Z,99354.81
2023-04-15T10:28:49.352Z,99351.44
2023-04-15T10:38:52.241Z,99351.97
2023-04-15T10:48:55.026Z,99355.97
2023-04-15T10:58:59.350Z,99372.44
2023-04-15T11:09:03.421Z,99373.47
2023-04-15T11:19:05.341Z,99382.34
2023-04-15T11:29:06.954Z,99380.66
2023-04-15T11:39:09.563Z,99381.69
2023-04-15T11:49:11.628Z,99359.16
2023-04-15T11:59:13.707Z,99379.63
2023-04-15T12:09:20.336Z,99376.25
2023-04-15T12:19:30.558Z,99377.47
2023-04-15T12:29:34.250Z,99362.31
2023-04-15T12:39:38.549Z,99361.84
2023-04-15T12:49:41.270Z,99374.41
2023-04-15T12:59:43.996Z,99379.59
2023-04-15T13:09:46.565Z,99409.66
2023-04-15T13:19:49.149Z,99405.28
2023-04-15T13:29:50.820Z,99401.91
2023-04-15T13:39:53.622Z,99399.38
2023-04-15T13:49:56.695Z,99403.22
2023-04-15T13:59:58.544Z,99414.50
2023-04-15T14:10:01.191Z,99403.75
2023-04-15T14:20:04.191Z,99402.59
2023-04-15T14:30:06.547Z,99406.28
2023-04-15T14:40:09.455Z,99399.06
2023-04-15T14:50:11.183Z,99412.66
2023-04-15T15:00:16.027Z,99406.06
2023-04-15T15:10:34.950Z,99421.69
2023-04-15T15:20:41.138Z,99415.50
2023-04-15T15:30:44.121Z,99416.97
2023-04-15T15:40:46.362Z,99423.03
2023-04-15T15:50:48.496Z,99434.44
2023-04-15T16:00:50.639Z,99432.06
2023-04-15T16:10:52.701Z,99440.97
2023-04-15T16:20:54.884Z,99437.59
2023-04-15T16:30:57.260Z,99442.31
2023-04-15T16:41:00.494Z,99452.72
2023-04-15T16:51:03.289Z,99454.56
2023-04-15T17:01:05.341Z,99457.75
2023-04-15T17:11:07.580Z,99477.88
2023-04-15T17:21:09.531Z,99483.25
2023-04-15T17:31:11.456Z,99480.22
2023-04-15T17:41:13.820Z,99500.53
2023-04-15T17:51:17.091Z,99526.06
2023-04-15T18:01:19.068Z,99531.75
2023-04-15T18:11:21.187Z,99541.00
2023-04-15T18:21:23.373Z,99567.53
2023-04-15T18:31:25.081Z,99565.16
2023-04-15T18:41:27.491Z,99594.72
2023-04-15T18:51:30.040Z,99633.38
2023-04-15T19:01:32.525Z,99669.28
2023-04-15T19:11:34.834Z,99646.41
2023-04-15T19:21:36.980Z,99669.97
2023-04-15T19:31:38.686Z,99696.91
2023-04-15T19:41:41.238Z,99694.72
2023-04-15T19:51:43.314Z,99689.66
2023-04-15T20:01:45.426Z,99694.34
2023-04-15T20:12:48.199Z,99701.25
2023-04-15T20:22:10.167Z,99701.94
2023-04-15T20:32:12.380Z,99691.13
2023-04-15T20:42:15.965Z,99686.91
2023-04-15T20:52:18.502Z,99707.09
2023-04-15T21:02:22.092Z,99701.19
2023-04-15T21:12:24.762Z,99685.53
2023-04-15T21:22:27.504Z,99687.56
2023-04-15T21:32:30.622Z,99678.81
2023-04-15T21:42:33.193Z,99702.34
2023-04-15T21:52:35.281Z,99690.22
2023-04-15T22:02:40.599Z,99687.84
2023-04-15T22:12:42.596Z,99691.09
2023-04-15T22:22:44.939Z,99686.47
2023-04-15T22:32:46.664Z,99696.91
2023-04-15T22:42:49.008Z,99703.28
2023-04-15T22:52:51.188Z,99682.41
2023-04-15T23:02:53.314Z,99699.06
2023-04-15T23:12:55.355Z,99690.16
2023-04-15T23:22:57.458Z,99691.91
2023-04-15T23:32:59.080Z,99715.63
2023-04-15T23:43:00.719Z,99702.19
2023-04-15T23:53:02.727Z,99686.00
